Time;durP1;ratioP1;P1;durP2;ratioP2;P2;SDS_P1;SDS_P2;PMS_P1;PMS_P2;Temp;Humidity;BMP_temperature;BMP_pressure;BME280_temperature;BME280_humidity;BME280_pressure;Samples;Min_cycle;Max_cycle;Signal;HPM_P1;HPM_P2
2022/09/08 00:00:37;;;;;;;6.82;3.83;;;24.00;99.90;;;;;;6186361;23;20382;-78
2022/09/08 00:03:06;;;;;;;5.85;4.05;;;24.00;99.90;;;;;;6184952;23;20008;-78
2022/09/08 00:05:53;;;;;;;4.75;3.97;;;24.00;99.90;;;;;;6186212;23;20023;-78
2022/09/08 00:08:20;;;;;;;4.55;3.65;;;23.90;99.90;;;;;;6186402;23;20008;-78
2022/09/08 00:10:50;;;;;;;5.55;3.70;;;23.90;99.90;;;;;;6185861;23;20047;-78
2022/09/08 00:13:16;;;;;;;5.93;3.95;;;23.80;99.90;;;;;;6186059;23;20088;-78
2022/09/08 00:15:41;;;;;;;5.07;3.72;;;23.80;99.90;;;;;;6186088;23;20079;-78
2022/09/08 00:18:07;;;;;;;4.47;3.45;;;23.80;99.90;;;;;;6186095;23;20080;-78
2022/09/08 00:20:33;;;;;;;6.32;3.78;;;23.80;99.90;;;;;;6186076;23;19998;-78
2022/09/08 00:22:59;;;;;;;6.50;4.13;;;23.80;99.90;;;;;;6159803;23;20345;-78
2022/09/08 00:25:26;;;;;;;6.82;4.00;;;23.70;99.90;;;;;;6186181;23;20001;-78
2022/09/08 00:27:51;;;;;;;5.70;4.03;;;23.70;99.90;;;;;;6159673;23;20096;-78
2022/09/08 00:30:17;;;;;;;6.53;3.53;;;23.70;99.90;;;;;;6186060;23;20037;-78
2022/09/08 00:32:43;;;;;;;4.82;4.32;;;23.70;99.90;;;;;;6185830;23;20024;-78
2022/09/08 00:35:14;;;;;;;4.72;3.88;;;23.70;99.90;;;;;;6186132;23;20433;-78
2022/09/08 00:37:43;;;;;;;4.00;3.70;;;23.70;99.90;;;;;;6185953;23;19997;-78
2022/09/08 00:40:09;;;;;;;7.20;3.85;;;23.60;99.90;;;;;;6186080;23;20025;-78
2022/09/08 00:42:35;;;;;;;6.68;3.92;;;23.70;99.90;;;;;;6186127;23;20001;-78
2022/09/08 00:45:01;;;;;;;5.00;3.90;;;23.70;99.90;;;;;;6185976;23;20012;-78
2022/09/08 00:47:30;;;;;;;8.80;3.80;;;23.70;99.90;;;;;;6185759;23;20001;-78
2022/09/08 00:50:07;;;;;;;8.35;3.67;;;23.60;99.90;;;;;;6185957;23;20005;-78
2022/09/08 00:52:47;;;;;;;7.93;3.72;;;23.50;99.90;;;;;;6185453;23;20005;-78
2022/09/08 00:55:15;;;;;;;3.60;3.20;;;23.50;99.90;;;;;;6185635;23;20008;-78
2022/09/08 00:57:40;;;;;;;4.70;3.70;;;23.50;99.90;;;;;;6185785;23;19997;-78
2022/09/08 01:00:10;;;;;;;6.13;4.20;;;23.50;99.90;;;;;;6159425;23;20005;-78
2022/09/08 01:02:35;;;;;;;7.97;4.15;;;23.50;99.90;;;;;;6185613;23;20005;-78
2022/09/08 01:05:06;;;;;;;3.78;3.30;;;23.50;99.90;;;;;;6160801;23;20353;-78
2022/09/08 01:13:47;;;;;;;4.75;4.35;;;23.50;99.90;;;;;;6185658;23;20020;-78
2022/09/08 01:16:13;;;;;;;8.77;4.13;;;23.50;99.90;;;;;;6185403;23;20064;-78
2022/09/08 01:18:38;;;;;;;5.10;4.05;;;23.40;99.90;;;;;;6185881;23;20001;-79
2022/09/08 01:21:16;;;;;;;5.78;4.32;;;23.40;99.90;;;;;;6185590;23;20000;-78
2022/09/08 01:23:55;;;;;;;7.95;4.15;;;23.40;99.90;;;;;;6185561;23;20011;-78
2022/09/08 01:26:45;;;;;;;4.32;4.03;;;23.30;99.90;;;;;;6185410;23;19997;-78
2022/09/08 01:29:13;;;;;;;6.45;3.97;;;23.40;99.90;;;;;;6185732;23;20027;-79
2022/09/08 01:31:42;;;;;;;4.70;4.30;;;23.40;99.90;;;;;;6184040;23;20013;-78
2022/09/08 01:34:08;;;;;;;5.60;4.22;;;23.40;99.90;;;;;;6185564;23;20088;-78
2022/09/08 01:36:34;;;;;;;7.28;4.35;;;23.30;99.90;;;;;;6185440;23;20604;-78
2022/09/08 01:39:00;;;;;;;5.00;3.75;;;23.30;99.90;;;;;;6183883;23;20449;-78
2022/09/08 01:41:26;;;;;;;4.40;4.00;;;23.30;99.90;;;;;;6183860;23;20011;-78
2022/09/08 01:43:52;;;;;;;6.63;4.20;;;23.30;99.90;;;;;;6185436;23;20001;-78
2022/09/08 01:46:18;;;;;;;7.40;4.10;;;23.30;99.90;;;;;;6185525;23;20307;-78
2022/09/08 01:48:44;;;;;;;8.65;4.45;;;23.30;99.90;;;;;;6185394;23;19997;-78
2022/09/08 01:51:10;;;;;;;6.70;3.70;;;23.30;99.90;;;;;;6185370;23;20008;-78
2022/09/08 01:53:36;;;;;;;5.10;4.35;;;23.30;99.90;;;;;;6185616;23;20005;-78
2022/09/08 01:56:04;;;;;;;4.72;4.20;;;23.20;99.90;;;;;;6185292;23;20080;-78
2022/09/08 01:58:30;;;;;;;6.43;4.18;;;23.20;99.90;;;;;;6185461;23;20005;-78
2022/09/08 02:00:57;;;;;;;5.50;4.20;;;23.20;99.90;;;;;;6185443;23;20397;-78
2022/09/08 02:03:23;;;;;;;5.38;4.70;;;23.20;99.90;;;;;;6185491;23;20068;-78
2022/09/08 02:05:49;;;;;;;6.32;4.22;;;23.20;99.90;;;;;;6185065;23;20064;-78
2022/09/08 02:08:14;;;;;;;5.20;4.25;;;23.10;99.90;;;;;;6158876;23;20014;-78
2022/09/08 02:10:40;;;;;;;4.28;3.97;;;23.10;99.90;;;;;;6185383;23;20005;-77
2022/09/08 02:13:06;;;;;;;5.38;3.97;;;23.10;99.90;;;;;;6185175;23;20008;-78
2022/09/08 02:15:32;;;;;;;5.50;3.97;;;23.10;99.90;;;;;;6185151;23;20001;-78
2022/09/08 02:17:58;;;;;;;5.03;4.18;;;23.10;99.90;;;;;;6185451;23;20480;-78
2022/09/08 02:20:26;;;;;;;10.95;4.50;;;23.00;99.90;;;;;;6185136;23;20048;-78
2022/09/08 02:22:53;;;;;;;7.60;4.82;;;23.00;99.90;;;;;;6185204;23;20009;-78
2022/09/08 02:25:21;;;;;;;4.68;4.28;;;22.90;99.90;;;;;;6158665;23;20009;-78
2022/09/08 02:27:46;;;;;;;10.88;4.78;;;22.90;99.90;;;;;;6185285;23;20001;-79
2022/09/08 02:30:13;;;;;;;4.63;4.22;;;22.90;99.90;;;;;;6185091;23;20008;-78
2022/09/08 02:32:39;;;;;;;7.28;4.50;;;22.90;99.90;;;;;;6185420;23;20005;-78
2022/09/08 02:35:06;;;;;;;5.40;4.90;;;22.90;99.90;;;;;;6187206;23;20006;-78
2022/09/08 02:37:31;;;;;;;5.03;4.50;;;22.90;99.90;;;;;;6187039;23;20010;-78
2022/09/08 02:39:57;;;;;;;10.07;4.68;;;22.90;99.90;;;;;;6187147;23;20006;-78
2022/09/08 02:42:23;;;;;;;5.72;4.68;;;23.00;99.90;;;;;;6187212;23;20032;-78
2022/09/08 02:44:48;;;;;;;6.57;5.22;;;23.00;99.90;;;;;;6186857;23;20104;-79
2022/09/08 02:47:14;;;;;;;5.30;4.18;;;22.90;99.90;;;;;;6186940;23;20055;-78
2022/09/08 02:49:40;;;;;;;10.68;5.25;;;22.90;99.90;;;;;;6160778;23;20342;-78
2022/09/08 02:52:06;;;;;;;7.25;5.05;;;22.90;99.90;;;;;;6186856;23;20497;-78
2022/09/08 02:54:31;;;;;;;4.80;4.30;;;22.90;99.90;;;;;;6160596;23;20005;-78
2022/09/08 02:56:57;;;;;;;7.35;4.47;;;23.00;99.90;;;;;;6160360;23;20001;-78
2022/09/08 02:59:23;;;;;;;9.30;3.78;;;22.90;99.90;;;;;;6160554;23;20005;-78
2022/09/08 03:01:49;;;;;;;4.80;4.32;;;22.90;99.90;;;;;;6186687;23;20005;-78
2022/09/08 03:04:15;;;;;;;7.05;4.80;;;23.00;99.90;;;;;;6186830;23;20480;-78
2022/09/08 03:06:41;;;;;;;7.80;5.07;;;23.00;99.90;;;;;;6186502;23;20084;-78
2022/09/08 03:09:07;;;;;;;5.28;4.50;;;23.00;99.90;;;;;;6187012;23;20009;-78
2022/09/08 03:11:33;;;;;;;6.88;4.40;;;23.00;99.90;;;;;;6160373;23;20029;-78
2022/09/08 03:14:00;;;;;;;7.05;4.22;;;22.90;99.90;;;;;;6160548;23;20055;-78
2022/09/08 03:16:26;;;;;;;7.25;4.60;;;22.90;99.90;;;;;;6160249;23;20083;-77
2022/09/08 03:18:53;;;;;;;4.97;4.22;;;22.90;99.90;;;;;;6186570;23;19997;-78
2022/09/08 03:21:18;;;;;;;6.75;4.55;;;22.80;99.90;;;;;;6186913;23;20005;-78
2022/09/08 03:23:44;;;;;;;6.03;4.13;;;22.80;99.90;;;;;;6186726;23;20020;-78
2022/09/08 03:26:12;;;;;;;6.95;4.63;;;22.70;99.90;;;;;;6186649;23;20373;-78
2022/09/08 03:28:38;;;;;;;5.47;4.45;;;22.70;99.90;;;;;;6160133;23;20001;-78
2022/09/08 03:31:09;;;;;;;4.55;4.18;;;22.70;99.90;;;;;;6186685;23;19997;-78
2022/09/08 03:33:36;;;;;;;9.13;4.43;;;22.70;99.90;;;;;;6160140;23;20087;-78
2022/09/08 03:36:04;;;;;;;7.45;4.20;;;22.70;99.90;;;;;;6160141;23;20032;-78
2022/09/08 03:38:30;;;;;;;7.43;4.53;;;22.70;99.90;;;;;;6186897;23;19997;-78
2022/09/08 03:40:56;;;;;;;7.90;4.38;;;22.70;99.90;;;;;;6186590;23;20079;-78
2022/09/08 03:43:21;;;;;;;5.15;3.83;;;22.70;99.90;;;;;;6186325;23;20012;-78
2022/09/08 03:45:47;;;;;;;4.75;3.85;;;22.70;99.90;;;;;;6185802;23;20449;-78
2022/09/08 03:48:14;;;;;;;5.13;4.07;;;22.70;99.90;;;;;;6186455;23;20080;-78
2022/09/08 03:50:41;;;;;;;5.82;4.68;;;22.70;99.90;;;;;;6186438;23;20509;-78
2022/09/08 03:53:06;;;;;;;6.15;4.75;;;22.70;99.90;;;;;;6186313;23;20005;-78
2022/09/08 03:55:32;;;;;;;8.07;4.45;;;22.70;99.90;;;;;;6159896;23;20040;-78
2022/09/08 03:57:59;;;;;;;5.28;4.32;;;22.70;99.90;;;;;;6186343;23;20008;-78
2022/09/08 04:00:29;;;;;;;5.45;4.65;;;22.60;99.90;;;;;;6186331;23;20004;-78
2022/09/08 04:02:55;;;;;;;5.75;5.25;;;22.60;99.90;;;;;;6186177;23;20001;-78
2022/09/08 04:05:21;;;;;;;4.63;4.28;;;22.70;99.90;;;;;;6185887;23;20024;-78
2022/09/08 04:07:47;;;;;;;5.43;4.50;;;22.60;99.90;;;;;;6159771;23;20035;-78
2022/09/08 04:10:13;;;;;;;5.78;5.05;;;22.70;99.90;;;;;;6186023;23;20549;-78
2022/09/08 04:12:39;;;;;;;6.75;5.32;;;22.70;99.90;;;;;;6159830;23;20311;-78
2022/09/08 04:15:06;;;;;;;5.25;4.75;;;22.60;99.90;;;;;;6186036;23;20005;-78
2022/09/08 04:17:32;;;;;;;4.80;4.40;;;22.50;99.90;;;;;;6159751;23;20005;-78
2022/09/08 04:19:58;;;;;;;7.03;4.63;;;22.50;99.90;;;;;;6159682;23;20005;-78
2022/09/08 04:22:24;;;;;;;4.85;4.55;;;22.50;99.90;;;;;;6160108;23;20009;-78
2022/09/08 04:24:51;;;;;;;5.47;3.92;;;22.50;99.90;;;;;;6185951;23;20315;-78
2022/09/08 04:27:18;;;;;;;7.38;4.50;;;22.60;99.90;;;;;;6159807;23;20031;-79
2022/09/08 04:29:44;;;;;;;7.90;4.88;;;22.60;99.90;;;;;;6159588;23;20376;-79
2022/09/08 04:32:20;;;;;;;6.18;5.20;;;22.60;99.90;;;;;;6159654;23;20085;-78
2022/09/08 04:34:51;;;;;;;7.50;4.57;;;22.60;99.90;;;;;;6159929;23;20027;-77
2022/09/08 04:37:18;;;;;;;;;;;22.60;99.90;;;;;;6160232;23;20012;-78
2022/09/08 04:39:43;;;;;;;7.80;4.20;;;22.60;99.90;;;;;;6159735;23;19967;-78
2022/09/08 04:42:09;;;;;;;5.53;4.07;;;22.60;99.90;;;;;;6159261;23;20393;-77
2022/09/08 04:44:35;;;;;;;4.78;4.03;;;22.60;99.90;;;;;;6185759;23;20005;-77
2022/09/08 04:47:00;;;;;;;5.68;4.38;;;22.70;99.90;;;;;;6159327;23;20005;-78
2022/09/08 04:49:26;;;;;;;7.45;4.30;;;22.70;99.90;;;;;;6159342;23;20012;-77
2022/09/08 04:51:55;;;;;;;5.57;4.68;;;22.70;99.90;;;;;;6159253;23;20033;-77
2022/09/08 04:54:22;;;;;;;5.57;4.60;;;22.70;99.90;;;;;;6185672;23;20007;-77
2022/09/08 04:56:48;;;;;;;5.05;4.60;;;22.80;99.90;;;;;;6184842;23;20097;-78
2022/09/08 04:59:14;;;;;;;6.18;4.65;;;22.80;99.90;;;;;;6185633;23;20369;-78
2022/09/08 05:01:40;;;;;;;6.97;4.40;;;22.80;99.90;;;;;;6185590;23;20056;-78
2022/09/08 05:04:05;;;;;;;4.53;3.90;;;22.80;99.90;;;;;;6185714;23;20024;-78
2022/09/08 05:06:33;;;;;;;4.82;4.32;;;22.80;99.90;;;;;;6185368;23;20044;-78
2022/09/08 05:09:00;;;;;;;4.78;4.28;;;23.00;99.90;;;;;;6185587;23;20008;-77
2022/09/08 05:11:28;;;;;;;5.95;4.68;;;23.00;99.90;;;;;;6159251;23;20087;-78
2022/09/08 05:13:55;;;;;;;6.25;4.55;;;22.90;99.90;;;;;;6159238;23;20001;-78
2022/09/08 05:16:24;;;;;;;5.82;4.68;;;23.00;99.90;;;;;;6185689;23;20504;-78
2022/09/08 05:18:53;;;;;;;5.97;4.22;;;22.90;99.90;;;;;;6185882;23;20007;-78
2022/09/08 05:21:19;;;;;;;4.80;4.13;;;22.90;99.90;;;;;;6185610;23;20028;-78
2022/09/08 05:23:49;;;;;;;6.72;4.53;;;22.90;99.90;;;;;;6159211;23;20009;-78
2022/09/08 05:26:15;;;;;;;6.18;4.55;;;23.00;99.90;;;;;;6185632;23;20001;-78
2022/09/08 05:28:42;;;;;;;5.22;4.72;;;23.00;99.90;;;;;;6185598;23;20029;-78
2022/09/08 05:31:17;;;;;;;5.75;4.15;;;23.00;99.90;;;;;;6185624;23;20055;-78
2022/09/08 05:33:43;;;;;;;5.22;4.50;;;23.00;99.90;;;;;;6158898;23;20009;-78
2022/09/08 05:36:18;;;;;;;6.38;4.22;;;23.00;99.90;;;;;;6185368;23;20076;-78
2022/09/08 05:38:44;;;;;;;6.47;4.20;;;23.00;99.90;;;;;;6158493;23;20001;-75
2022/09/08 05:41:10;;;;;;;6.70;4.35;;;23.00;99.90;;;;;;6184299;23;20012;-76
2022/09/08 05:43:37;;;;;;;5.22;4.72;;;23.00;99.90;;;;;;6184314;23;20001;-76
2022/09/08 05:46:03;;;;;;;5.28;4.88;;;23.00;99.90;;;;;;6184272;23;20005;-76
2022/09/08 05:48:30;;;;;;;5.80;4.60;;;23.00;99.90;;;;;;6157897;23;20005;-76
2022/09/08 05:50:56;;;;;;;5.47;4.72;;;23.00;99.90;;;;;;6157876;23;20017;-75
2022/09/08 05:53:22;;;;;;;5.93;4.40;;;23.10;99.90;;;;;;6184577;23;20056;-75
2022/09/08 05:56:03;;;;;;;8.50;4.85;;;23.10;99.90;;;;;;6185217;23;19997;-76
2022/09/08 05:58:29;;;;;;;13.15;5.75;;;23.20;99.90;;;;;;6185119;23;19997;-76
2022/09/08 06:01:00;;;;;;;9.63;5.95;;;23.20;99.90;;;;;;6159026;23;20087;-78
2022/09/08 06:03:26;;;;;;;7.05;4.97;;;23.10;99.90;;;;;;6185303;23;20012;-78
2022/09/08 06:05:54;;;;;;;9.48;5.38;;;23.00;99.90;;;;;;6185123;23;20016;-78
2022/09/08 06:08:21;;;;;;;9.10;5.38;;;23.00;99.90;;;;;;6159822;23;20341;-77
2022/09/08 08:07:57;;;;;;;1.95;1.67;;;20.00;99.90;;;;;;6226479;22;20329;-82
2022/09/08 08:10:34;;;;;;;3.40;2.13;;;20.80;99.90;;;;;;6224087;23;20004;-82
2022/09/08 08:13:12;;;;;;;2.28;2.17;;;20.70;99.90;;;;;;6197276;23;20004;-82
2022/09/08 08:15:46;;;;;;;4.78;2.75;;;20.80;99.90;;;;;;6197138;23;20004;-82
2022/09/08 08:18:25;;;;;;;4.10;3.42;;;20.80;99.90;;;;;;6224055;23;20000;-82
2022/09/08 08:21:03;;;;;;;5.20;3.60;;;20.90;99.90;;;;;;6197298;23;20000;-82
2022/09/08 08:23:48;;;;;;;5.75;3.40;;;21.10;99.90;;;;;;6223791;23;20079;-83
2022/09/08 08:26:39;;;;;;;6.35;3.63;;;21.30;99.90;;;;;;6197104;23;20420;-83
2022/09/08 08:29:30;;;;;;;3.60;3.28;;;21.40;99.90;;;;;;6223925;23;20007;-82
2022/09/08 08:32:16;;;;;;;6.75;3.65;;;21.60;99.90;;;;;;6223991;23;20429;-82
2022/09/08 08:35:04;;;;;;;5.15;3.70;;;21.60;99.90;;;;;;6223590;23;20052;-82
2022/09/08 08:37:32;;;;;;;6.03;4.53;;;21.80;99.90;;;;;;6223932;23;20050;-83
2022/09/08 08:40:00;;;;;;;9.32;4.32;;;21.80;99.90;;;;;;6197015;23;20050;-82
2022/09/08 08:43:10;;;;;;;7.43;3.85;;;21.90;99.90;;;;;;6197141;23;20003;-82
2022/09/08 08:46:24;;;;;;;2.92;2.28;;;22.00;99.90;;;;;;6210901;23;20035;-82
2022/09/08 08:49:26;;;;;;;5.35;2.47;;;22.00;99.90;;;;;;6078101;23;20414;-83
2022/09/08 08:52:22;;;;;;;3.20;2.97;;;22.00;99.90;;;;;;6223678;23;20001;-83
2022/09/08 08:55:04;;;;;;;5.38;2.53;;;22.10;99.90;;;;;;6223504;23;20454;-83
2022/09/08 08:57:52;;;;;;;6.65;4.07;;;22.10;99.90;;;;;;6223447;23;20004;-85
2022/09/08 09:00:19;;;;;;;5.13;2.53;;;22.20;99.90;;;;;;6196813;23;20501;-82
2022/09/08 09:03:21;;;;;;;4.03;2.67;;;22.20;99.90;;;;;;6223437;23;20484;-81
2022/09/08 09:06:23;;;;;;;4.00;1.87;;;22.40;99.90;;;;;;6196781;23;20027;-81
2022/09/08 09:09:20;;;;;;;2.20;1.98;;;22.40;99.90;;;;;;6216868;23;20005;-80
2022/09/08 09:12:10;;;;;;;2.15;2.05;;;22.40;99.90;;;;;;6216704;23;20035;-81
2022/09/08 09:15:11;;;;;;;2.60;2.40;;;22.50;99.90;;;;;;6190009;23;20006;-80
2022/09/08 09:17:56;;;;;;;2.30;1.90;;;22.60;99.90;;;;;;6216587;23;20368;-80
2022/09/08 09:20:36;;;;;;;3.90;2.47;;;22.70;99.90;;;;;;6216339;23;19996;-80
2022/09/08 09:23:23;;;;;;;2.60;1.60;;;22.70;99.90;;;;;;6216315;23;19997;-80
2022/09/08 09:25:58;;;;;;;4.93;2.10;;;22.60;99.90;;;;;;6189895;23;20436;-80
2022/09/08 09:29:02;;;;;;;3.08;2.30;;;22.60;99.90;;;;;;6216552;23;20486;-80
2022/09/08 09:31:46;;;;;;;1.80;1.70;;;22.70;99.90;;;;;;6190235;23;20344;-80
2022/09/08 09:34:57;;;;;;;4.85;2.15;;;22.80;99.90;;;;;;6216406;23;20029;-80
2022/09/08 09:37:37;;;;;;;4.80;1.73;;;22.90;99.90;;;;;;6200297;23;20013;-80
2022/09/08 09:40:23;;;;;;;3.22;2.10;;;22.90;99.90;;;;;;6189947;23;20134;-80
2022/09/08 09:43:18;;;;;;;3.33;1.80;;;23.00;99.90;;;;;;6189786;23;20091;-80
2022/09/08 09:46:05;;;;;;;1.70;1.60;;;22.90;99.90;;;;;;6189741;23;20360;-80
2022/09/08 09:49:08;;;;;;;4.00;1.90;;;22.90;99.90;;;;;;6189669;23;20439;-80
2022/09/08 09:51:55;;;;;;;3.30;2.40;;;22.90;99.90;;;;;;6216332;23;19996;-80
2022/09/08 09:54:20;;;;;;;3.45;1.65;;;23.00;99.90;;;;;;6189603;23;20305;-80
2022/09/08 09:57:07;;;;;;;2.90;1.80;;;23.10;99.90;;;;;;6189411;23;20015;-80
2022/09/08 09:59:59;;;;;;;4.07;1.92;;;23.10;99.90;;;;;;6189549;23;20024;-81
2022/09/08 10:03:02;;;;;;;4.78;1.65;;;23.20;99.90;;;;;;6216394;23;20494;-80
2022/09/08 10:05:52;;;;;;;1.70;1.60;;;23.30;99.90;;;;;;6189370;23;20032;-80
2022/09/08 10:08:36;;;;;;;5.30;1.60;;;23.50;99.90;;;;;;6189339;23;20396;-81
2022/09/08 10:11:29;;;;;;;2.08;1.88;;;23.50;99.90;;;;;;6215900;23;20007;-81
2022/09/08 10:14:17;;;;;;;3.92;2.00;;;23.60;99.90;;;;;;6189149;23;20011;-81
2022/09/08 10:17:04;;;;;;;1.95;1.80;;;23.50;99.90;;;;;;6189213;23;20009;-81
2022/09/08 10:19:33;;;;;;;3.95;2.28;;;23.50;99.90;;;;;;6215390;23;20067;-81
2022/09/08 10:22:20;;;;;;;2.63;1.73;;;23.50;99.90;;;;;;6215850;23;20001;-81
2022/09/08 10:25:12;;;;;;;4.20;1.73;;;23.50;99.90;;;;;;6215740;23;20076;-81
2022/09/08 10:27:59;;;;;;;2.58;2.38;;;23.40;99.90;;;;;;6169614;23;20091;-81
2022/09/08 10:30:44;;;;;;;4.03;2.10;;;23.40;99.90;;;;;;6189231;23;20055;-81
2022/09/08 10:33:40;;;;;;;4.50;1.90;;;23.50;99.90;;;;;;6215844;23;19997;-82
2022/09/08 10:36:11;;;;;;;4.32;2.45;;;23.60;99.90;;;;;;6215341;23;20435;-81
2022/09/08 10:39:11;;;;;;;5.15;2.47;;;23.70;99.90;;;;;;6188604;23;20440;-81
2022/09/08 10:42:07;;;;;;;5.45;3.05;;;23.70;99.90;;;;;;6189205;23;20005;-81
2022/09/08 10:44:55;;;;;;;4.70;3.03;;;23.90;99.90;;;;;;6215806;23;19997;-81
2022/09/08 10:47:32;;;;;;;4.97;3.08;;;24.00;99.90;;;;;;6189163;23;20000;-81
2022/09/08 10:50:17;;;;;;;4.60;3.40;;;24.20;99.90;;;;;;6189288;23;20008;-82
2022/09/08 10:53:07;;;;;;;4.53;3.03;;;24.30;99.90;;;;;;6189209;23;20000;-81
2022/09/08 10:55:42;;;;;;;6.50;3.15;;;24.40;99.90;;;;;;6189027;23;20008;-81
2022/09/08 10:58:25;;;;;;;5.65;3.13;;;24.50;99.90;;;;;;6189276;23;20000;-81
2022/09/08 11:01:18;;;;;;;5.05;2.97;;;24.60;99.90;;;;;;6215724;23;20056;-81
2022/09/08 11:04:18;;;;;;;4.55;2.65;;;24.60;99.90;;;;;;6188891;23;20043;-81
2022/09/08 11:06:55;;;;;;;5.20;3.13;;;24.70;99.90;;;;;;6188791;23;20024;-81
2022/09/08 11:09:42;;;;;;;6.50;2.70;;;24.70;99.90;;;;;;6188974;23;20337;-81
2022/09/08 11:12:11;;;;;;;4.63;2.80;;;24.80;99.90;;;;;;6188933;23;20047;-81
2022/09/08 11:15:08;;;;;;;4.50;3.13;;;24.90;99.90;;;;;;6215351;23;20078;-81
2022/09/08 11:17:43;;;;;;;8.02;3.08;;;24.90;99.90;;;;;;6214625;23;20008;-81
2022/09/08 11:20:50;;;;;;;5.43;3.50;;;25.20;99.90;;;;;;6188910;23;20015;-81
2022/09/08 11:23:36;;;;;;;3.35;2.10;;;25.30;99.90;;;;;;6188733;23;20007;-81
2022/09/08 11:26:01;;;;;;;6.25;2.97;;;25.40;99.90;;;;;;6215558;23;20001;-81
2022/09/08 11:28:39;;;;;;;8.88;2.83;;;25.50;99.90;;;;;;6215555;23;20013;-81
2022/09/08 11:31:32;;;;;;;6.78;2.65;;;25.60;99.90;;;;;;6215357;23;20372;-81
2022/09/08 11:34:28;;;;;;;9.23;2.95;;;25.70;99.90;;;;;;6188576;23;20009;-81
2022/09/08 11:37:14;;;;;;;7.75;2.90;;;25.80;99.90;;;;;;6188607;23;20012;-81
2022/09/08 11:39:58;;;;;;;9.52;3.50;;;25.90;99.90;;;;;;6215494;23;20036;-81
2022/09/08 11:42:48;;;;;;;5.45;2.90;;;26.00;99.90;;;;;;6215307;23;19997;-81
2022/09/08 11:45:41;;;;;;;5.50;2.97;;;25.90;99.90;;;;;;6188641;23;20011;-81
2022/09/08 11:48:29;;;;;;;6.60;2.55;;;26.00;99.90;;;;;;6188795;23;20108;-80
2022/09/08 11:51:35;;;;;;;5.65;2.42;;;26.10;99.90;;;;;;6215428;23;19999;-80
2022/09/08 11:54:06;;;;;;;2.67;2.47;;;26.10;99.90;;;;;;6130030;23;20005;-81
2022/09/08 11:56:44;;;;;;;4.63;3.00;;;26.30;99.90;;;;;;6188925;23;20091;-81
2022/09/08 11:59:33;;;;;;;5.15;2.42;;;26.40;99.90;;;;;;6188719;23;20091;-81
2022/09/08 12:02:36;;;;;;;6.18;2.70;;;26.60;99.90;;;;;;6215416;23;20088;-81
2022/09/08 12:05:45;;;;;;;8.38;2.78;;;26.70;99.90;;;;;;6215101;23;20024;-81
2022/09/08 12:08:23;;;;;;;5.88;2.65;;;26.90;99.90;;;;;;6214598;23;20016;-81
2022/09/08 12:11:06;;;;;;;2.97;2.67;;;27.00;99.90;;;;;;6215259;23;20004;-81
2022/09/08 12:13:44;;;;;;;5.45;2.35;;;27.10;99.90;;;;;;6215159;23;20008;-80
2022/09/08 12:16:15;;;;;;;3.85;2.17;;;27.10;99.90;;;;;;6188690;23;20317;-81
2022/09/08 12:19:16;;;;;;;3.90;2.45;;;27.00;99.90;;;;;;6215267;23;20000;-80
2022/09/08 12:21:47;;;;;;;4.30;3.25;;;27.00;99.90;;;;;;6068458;23;20101;-80
2022/09/08 12:24:43;;;;;;;12.82;2.67;;;27.10;99.90;;;;;;6194650;23;20451;-80
2022/09/08 12:27:25;;;;;;;6.03;2.60;;;27.20;99.90;;;;;;6215325;23;20008;-80
2022/09/08 12:29:57;;;;;;;3.13;2.10;;;27.20;99.90;;;;;;6188765;23;20339;-80
2022/09/08 12:32:35;;;;;;;;;;;27.40;99.90;;;;;;6189203;23;20011;-81
2022/09/08 12:35:23;;;;;;;7.07;2.78;;;27.40;99.90;;;;;;6215161;23;19900;-80
2022/09/08 12:38:20;;;;;;;2.95;2.20;;;27.20;99.90;;;;;;6215109;23;20008;-80
2022/09/08 12:41:08;;;;;;;4.88;2.42;;;27.10;99.90;;;;;;6215353;23;20024;-80
2022/09/08 12:43:42;;;;;;;6.65;2.35;;;27.20;99.90;;;;;;6189941;23;20368;-80
2022/09/08 12:46:41;;;;;;;4.80;2.67;;;27.20;99.90;;;;;;6217002;23;20032;-81
2022/09/08 12:49:18;;;;;;;4.00;2.50;;;27.30;99.90;;;;;;6217157;23;20455;-80
2022/09/08 12:51:44;;;;;;;9.43;2.80;;;27.20;99.90;;;;;;6216762;23;20471;-81
2022/09/08 12:54:43;;;;;;;2.75;2.42;;;27.10;99.90;;;;;;6216784;23;19996;-81
2022/09/08 12:57:37;;;;;;;5.05;2.58;;;27.00;99.90;;;;;;6217153;23;20071;-81
2022/09/08 13:00:12;;;;;;;3.38;2.95;;;27.20;99.90;;;;;;6190419;23;20503;-80
2022/09/08 13:02:53;;;;;;;4.60;2.80;;;27.00;99.90;;;;;;6216918;23;20008;-80
2022/09/08 13:05:35;;;;;;;7.15;2.75;;;27.10;99.90;;;;;;6216649;23;20058;-80
2022/09/08 13:08:28;;;;;;;6.35;3.15;;;27.20;99.90;;;;;;6216943;23;20024;-80
2022/09/08 13:11:11;;;;;;;2.95;2.30;;;27.40;99.90;;;;;;6190278;23;20001;-80
2022/09/08 13:13:44;;;;;;;6.00;2.38;;;27.50;99.90;;;;;;6216770;23;20000;-80
2022/09/08 13:16:10;;;;;;;3.35;2.50;;;27.50;99.90;;;;;;6216884;23;20479;-81
2022/09/08 13:19:11;;;;;;;5.15;2.33;;;27.50;99.90;;;;;;6216836;23;20035;-81
2022/09/08 13:21:40;;;;;;;7.17;2.80;;;27.60;99.90;;;;;;6200686;23;20090;-81
2022/09/08 13:24:30;;;;;;;7.97;2.30;;;27.50;99.90;;;;;;6216485;23;20007;-81
2022/09/08 13:27:06;;;;;;;5.53;2.03;;;27.70;99.90;;;;;;6189830;23;20057;-82
2022/09/08 13:29:35;;;;;;;5.07;1.95;;;27.70;99.90;;;;;;6189992;23;20444;-80
2022/09/08 13:32:10;;;;;;;4.28;2.00;;;27.90;99.90;;;;;;6216754;23;20001;-80
2022/09/08 13:34:46;;;;;;;4.13;2.30;;;27.90;99.90;;;;;;6190007;23;19996;-81
2022/09/08 13:37:36;;;;;;;7.43;2.15;;;28.00;99.90;;;;;;6216672;23;20004;-81
2022/09/08 13:40:53;;;;;;;2.90;1.95;;;27.70;99.90;;;;;;6216649;23;20007;-80
2022/09/08 13:43:34;;;;;;;2.22;2.03;;;27.60;99.90;;;;;;6152777;23;20496;-81
2022/09/08 13:46:02;;;;;;;4.68;3.05;;;27.60;99.90;;;;;;6216665;23;20314;-81
2022/09/08 13:48:34;;;;;;;5.07;2.20;;;27.50;99.90;;;;;;6216834;23;20004;-81
2022/09/08 13:51:18;;;;;;;7.43;2.28;;;27.50;99.90;;;;;;6216523;23;20032;-81
2022/09/08 13:54:02;;;;;;;12.13;3.10;;;27.70;99.90;;;;;;6216342;23;19997;-81
2022/09/08 13:56:49;;;;;;;4.07;3.10;;;27.80;99.90;;;;;;6216444;23;20083;-87
2022/09/08 13:59:37;;;;;;;4.95;2.50;;;27.70;99.90;;;;;;6189925;23;20004;-86
2022/09/08 14:02:27;;;;;;;5.65;2.92;;;27.70;99.90;;;;;;6216226;23;20054;-87
2022/09/08 14:05:03;;;;;;;8.32;4.28;;;27.80;99.90;;;;;;6189385;23;20384;-81
2022/09/08 14:07:31;;;;;;;8.93;2.72;;;28.10;99.90;;;;;;6189141;23;20436;-81
2022/09/08 14:10:18;;;;;;;4.25;2.58;;;28.30;99.90;;;;;;6216022;23;20001;-81
2022/09/08 14:12:59;;;;;;;6.05;2.38;;;28.40;99.90;;;;;;6189275;23;20012;-81
2022/09/08 14:15:28;;;;;;;9.98;3.08;;;28.50;99.90;;;;;;6216235;23;20008;-81
2022/09/08 14:18:17;;;;;;;5.75;2.42;;;28.40;99.90;;;;;;6216150;23;20059;-81
2022/09/08 14:20:59;;;;;;;5.78;1.80;;;28.50;99.90;;;;;;6189488;23;20344;-81
2022/09/08 14:23:37;;;;;;;2.80;1.95;;;28.60;99.90;;;;;;6216095;23;20028;-81
2022/09/08 14:26:24;;;;;;;1.90;1.63;;;28.70;99.90;;;;;;6187881;23;20016;-82
2022/09/08 14:28:56;;;;;;;10.48;2.00;;;28.70;99.90;;;;;;6213341;23;20008;-81
2022/09/08 14:31:36;;;;;;;5.13;2.08;;;28.70;99.90;;;;;;6186929;23;20008;-82
2022/09/08 14:34:16;;;;;;;5.70;1.52;;;28.70;98.70;;;;;;6213324;23;19997;-82
2022/09/08 14:36:53;;;;;;;2.45;1.77;;;28.80;98.80;;;;;;6213497;23;20012;-82
2022/09/08 14:39:23;;;;;;;6.00;1.95;;;28.80;99.90;;;;;;6213305;23;20027;-84
2022/09/08 14:42:25;;;;;;;5.03;1.65;;;28.80;99.70;;;;;;6213152;23;20083;-82
2022/09/08 14:45:26;;;;;;;4.18;1.77;;;28.80;98.60;;;;;;6212928;23;20005;-81
2022/09/08 14:48:01;;;;;;;6.05;1.98;;;28.70;99.90;;;;;;6213807;23;20027;-81
2022/09/08 14:50:40;;;;;;;9.43;2.55;;;28.60;99.90;;;;;;6214042;23;20004;-81
2022/09/08 14:53:25;;;;;;;2.13;2.00;;;28.50;99.90;;;;;;6214023;23;20000;-81
2022/09/08 14:56:01;;;;;;;2.05;1.80;;;28.30;99.90;;;;;;6213459;23;20462;-81
2022/09/08 14:58:44;;;;;;;5.45;1.77;;;28.20;99.90;;;;;;6213762;23;20035;-81
2022/09/08 15:01:25;;;;;;;6.47;2.08;;;28.10;99.90;;;;;;6212710;23;20340;-81
2022/09/08 15:04:01;;;;;;;9.48;2.15;;;27.90;99.90;;;;;;6186874;23;20005;-81
2022/09/08 15:06:59;;;;;;;4.72;1.80;;;27.80;99.90;;;;;;6169778;23;20031;-82
2022/09/08 15:09:31;;;;;;;2.88;1.60;;;27.70;99.90;;;;;;6164787;23;20016;-82
2022/09/08 15:12:09;;;;;;;1.90;1.80;;;27.60;99.90;;;;;;6156838;23;20005;-81
2022/09/08 15:15:02;;;;;;;1.77;1.67;;;27.50;99.90;;;;;;6182208;23;19997;-84
2022/09/08 15:17:36;;;;;;;4.95;2.30;;;27.50;99.90;;;;;;6185206;23;20005;-82
2022/09/08 15:20:32;;;;;;;3.22;2.05;;;27.40;99.90;;;;;;6184758;23;20001;-81
2022/09/08 15:23:31;;;;;;;3.45;1.58;;;27.30;99.90;;;;;;6184793;23;20301;-82
2022/09/08 15:26:03;;;;;;;4.15;2.20;;;27.20;99.90;;;;;;6158605;23;20036;-81
2022/09/08 15:28:36;;;;;;;;;;;27.10;99.90;;;;;;6185763;23;19997;-81
2022/09/08 15:31:20;;;;;;;2.72;1.83;;;27.10;99.90;;;;;;6184795;23;19900;-81
2022/09/08 15:34:21;;;;;;;6.32;2.92;;;27.00;99.90;;;;;;6157483;23;20333;-81
2022/09/08 15:37:09;;;;;;;3.08;2.28;;;27.10;99.90;;;;;;6011140;23;20617;-81
2022/09/08 15:39:59;;;;;;;4.53;2.55;;;27.40;99.90;;;;;;6149400;23;20087;-81